North Canton, Ohio
Current Conditions -  °F | °C
As of 10:51 AM on Wednesday 22 Oct 2014 (Local Time) from KCAK Reporting Station
Overcast Overcast  
Wind Chill: 43°   Ceiling: 900
Heat Index: 47°   Visibility: 8mi
Dew Point: 42°   Wind: 9mph
Humidity: 83%   Direction: 360°N
Pressure: 30.22"   Gusts: NA
Location:  40.88°N, 81.4°W
Report Text: KCAK 221451Z 36008KT 8SM OVC009 08/06 A3022 RMK AO2 SLP240 60000 T00830056 51014 $
Loading
Personal Weather Stations






























Interactive Weather Map New forecast layout! Learn more

10-Day Weather Forecast

Advertisements
Track Severe Weather on mobile